Latest Coastal Weather Observations for Cape Moreton

IDQ60701

Issued at 10:51 am EST Wednesday 16 October 2019 (issued every 10 minutes, with the page automatically refreshed every 10 minutes)

About coastal observations | Map of coastal stations | Coastal observations for QLD | Marine services | Other Formats
Station Details ID: 040043 Name: CAPE MORETON LIGHTHOUSE Lat: -27.03 Lon: 153.47 Height: 99.9 m
Data from the previous 72 hours. | See also: Recent months at Cape Moreton
Date/Time
EST
Wind Sea
Height
m
Swell Vis
km
Cloud Weather Temp
°C
Press
hPa
Rain since
9am
mm
Dir  Spd
kts
Gust
kts
Height
m
Period
s
Dir
16/10:30am NNW 13 17 - - - - - - - 23.5 1016.4 0.0
16/10:00am NNW 10 14 - - - - - - - 23.8 1016.6 0.0
16/09:30am NNW 11 15 - - - - - - - 23.7 1016.9 0.0
16/09:00am NNW 12 16 - - - - - - - 22.9 1017.0 0.2
16/08:30am NNW 13 17 - - - - - - - 22.7 1016.8 0.2
16/08:00am NNW 12 17 - - - - - - - 22.9 1016.7 0.2
16/07:30am NNW 13 19 - - - - - - - 22.0 1016.4 0.2
16/07:00am N 14 18 - - - - - - - 21.5 1015.8 0.2
16/06:30am N 15 19 - - - - - - - 21.2 1015.8 0.2
16/06:00am N 17 21 - - - - - - - 20.9 1015.3 0.2
16/05:30am N 15 17 - - - - - - - 20.7 1015.3 0.2
16/05:00am N 13 15 - - - - - - - 20.6 1015.5 0.2
16/04:30am N 14 17 - - - - - - - 20.6 1015.2 0.2
16/04:00am N 11 14 - - - - - - - 20.5 1014.7 0.2
16/03:30am N 9 12 - - - - - - - 20.4 1014.6 0.2
16/03:00am N 11 13 - - - - - - - 20.6 1014.4 0.2
16/02:30am N 12 15 - - - - - - - 20.6 1014.2 0.2
16/02:00am N 13 15 - - - - - - - 20.6 1014.0 0.2
16/01:30am N 13 17 - - - - - - - 20.6 1014.2 0.2
16/01:00am N 13 16 - - - - - - - 20.7 1014.3 0.2
16/12:30am N 14 18 - - - - - - - 20.8 1014.5 0.2
16/12:00am N 14 18 - - - - - - - 20.8 1014.5 0.2
 
Date/Time
EST
Wind Sea
Height
m
Swell Vis
km
Cloud Weather Temp
°C
Press
hPa
Rain since
9am
mm
Dir  Spd
kts
Gust
kts
Height
m
Period
s
Dir
15/11:30pm N 17 20 - - - - - - - 20.9 1014.6 0.2
15/11:00pm N 15 19 - - - - - - - 20.9 1014.4 0.2
15/10:30pm N 13 17 - - - - - - - 20.9 1014.4 0.2
15/10:00pm N 13 19 - - - - - - - 21.0 1014.4 0.2
15/09:30pm NNE 15 19 - - - - - - - 21.0 1014.1 0.2
15/09:00pm NNE 16 22 - - - - - - - 21.1 1013.8 0.2
15/08:30pm NNE 17 22 - - - - - - - 21.1 1013.7 0.2
15/08:00pm NNE 17 22 - - - - - - - 21.1 1013.5 0.2
15/07:30pm NNE 19 23 - - - - - - - 21.2 1013.2 0.2
15/07:00pm NNE 17 21 - - - - - - - 21.2 1012.9 0.2
15/06:30pm NNE 17 20 - - - - - - - 21.3 1012.8 0.2
15/06:00pm NE 17 20 - - - - - - - 21.4 1012.3 0.2
15/05:30pm NE 17 21 - - - - - - - 21.4 1011.8 0.2
15/05:00pm NE 19 23 - - - - - - - 21.5 1011.5 0.2
15/04:30pm NE 19 22 - - - - - - - 21.8 1011.3 0.2
15/04:00pm NE 17 21 - - - - - - - 22.0 1011.2 0.2
15/03:30pm NNE 15 19 - - - - - - - 22.4 1011.3 0.2
15/03:00pm NNE 14 19 - - - - - - - 22.9 1011.5 0.2
15/02:30pm NNE 15 20 - - - - - - - 23.1 1011.6 0.2
15/02:00pm NNE 15 19 - - - - - - - 23.3 1011.8 0.2
15/01:30pm NNE 15 20 - - - - - - - 23.5 1012.1 0.2
15/01:00pm NNE 13 18 - - - - - - - 24.1 1012.5 0.2
15/12:30pm N 14 19 - - - - - - - 23.5 1013.0 0.2
15/12:00pm N 14 18 - - - - - - Recent precip. 23.2 1013.5 0.2
15/11:30am N 15 20 - - - - - - - 23.3 1013.7 0.0
15/11:00am N 16 20 - - - - - - - 22.7 1013.9 0.0
15/10:30am N 17 22 - - - - - - - 22.3 1014.2 0.0
15/10:00am N 16 21 - - - - - - - 21.7 1014.7 0.0
15/09:30am N 17 21 - - - - - - - 20.9 1015.0 0.0
15/09:00am NNW 13 19 - - - - - - - 21.6 1015.3 0.4
15/08:30am NNW 14 19 - - - - - - - 21.0 1015.4 0.4
15/08:00am NNW 14 21 - - - - - - - 20.9 1015.4 0.4
15/07:30am NNW 14 20 - - - - - - - 20.6 1015.2 0.4
15/07:00am N 17 22 - - - - - - - 20.7 1015.0 0.4
15/06:30am N 17 22 - - - - - - - 20.5 1014.9 0.4
15/06:00am N 19 23 - - - - - - - 20.4 1014.5 0.4
15/05:30am N 20 25 - - - - - - - 20.0 1013.9 0.4
15/05:00am N 17 23 - - - - - - - 20.0 1014.3 0.4
15/04:30am N 23 28 - - - - - - - 19.8 1013.4 0.4
15/04:00am N 21 26 - - - - - - - 20.0 1013.2 0.2
15/03:30am N 16 23 - - - - - - - 19.6 1013.2 0.2
15/03:00am N 13 20 - - - - - - - 19.6 1014.2 0.0
15/02:30am N 17 23 - - - - - - - 20.3 1014.0 0.0
15/02:00am N 18 23 - - - - - - - 20.3 1013.8 0.0
15/01:30am N 20 26 - - - - - - - 20.3 1014.3 0.0
15/01:00am NNW 18 24 - - - - - - - 20.3 1014.8 0.0
15/12:30am NNW 17 24 - - - - - - - 20.4 1014.7 0.0
15/12:00am N 19 25 - - - - - - - 20.4 1014.8 0.0
 
Date/Time
EST
Wind Sea
Height
m
Swell Vis
km
Cloud Weather Temp
°C
Press
hPa
Rain since
9am
mm
Dir  Spd
kts
Gust
kts
Height
m
Period
s
Dir
14/11:30pm N 19 23 - - - - - - - 20.5 1014.9 0.0
14/11:00pm N 19 25 - - - - - - - 20.3 1015.0 0.0
14/10:30pm N 18 27 - - - - - - - 20.5 1015.2 0.0
14/10:00pm N 17 22 - - - - - - - 20.4 1015.2 0.0
14/09:30pm N 16 21 - - - - - - - 20.4 1015.7 0.0
14/09:00pm N 15 20 - - - - - - - 20.3 1015.5 0.0
14/08:30pm N 13 21 - - - - - - - 20.4 1015.8 0.0
14/08:00pm N 14 19 - - - - - - - 20.4 1015.7 0.0
14/07:30pm N 14 19 - - - - - - - 20.3 1015.4 0.0
14/07:00pm NNE 16 21 - - - - - - - 20.2 1015.1 0.0
14/06:30pm NNE 15 19 - - - - - - - 20.2 1014.8 0.0
14/06:00pm NNE 15 19 - - - - - - - 20.2 1014.6 0.0
14/05:30pm NNE 13 16 - - - - - - - 20.2 1014.9 0.0
14/05:00pm NNE 12 14 - - - - - - - 20.5 1014.8 0.0
14/04:30pm NE 11 14 - - - - - - - 20.6 1014.7 0.0
14/04:00pm NE 11 15 - - - - - - - 21.0 1014.6 0.0
14/03:30pm NE 10 13 - - - - - - - 21.1 1014.7 0.0
14/03:00pm NE 11 15 - - - - - - - 21.6 1014.7 0.0
14/02:30pm NE 11 15 - - - - - - - 21.7 1015.1 0.0
14/02:00pm NE 11 14 - - - - - - - 22.2 1015.4 0.0
14/01:30pm NNE 10 13 - - - - - - - 22.5 1015.9 0.0
14/01:00pm NNE 9 12 - - - - - - - 23.1 1016.5 0.0
14/12:30pm NE 8 10 - - - - - - - 23.0 1017.0 0.0
14/12:00pm N 7 9 - - - - - - - 22.4 1017.7 0.0
14/11:30am N 6 8 - - - - - - - 20.7 1018.2 0.0
14/11:00am NNW 6 9 - - - - - - - 21.5 1018.5 0.0
14/10:30am NW 7 9 - - - - - - - 21.0 1018.9 0.0
14/10:00am NNW 6 9 - - - - - - - 21.0 1019.2 0.0
14/09:30am NW 6 8 - - - - - - - 21.2 1019.4 0.0
14/09:00am NW 6 8 - - - - - - - 21.1 1019.5 0.0
14/08:30am NW 5 8 - - - - - - - 20.1 1019.3 0.0
14/08:00am E 5 7 - - - - - - - 21.1 1019.1 0.0
14/07:30am W 1 3 - - - - - - - 19.3 1019.4 0.0
14/07:00am SW 3 6 - - - - - - - 18.5 1019.1 0.0
14/06:30am SW 6 7 - - - - - - - 17.4 1019.0 0.0
14/06:00am SSW 7 8 - - - - - - - 16.7 1018.8 0.0
14/05:30am SSW 8 11 - - - - - - - 16.3 1018.5 0.0
14/05:00am SW 9 11 - - - - - - - 16.4 1018.1 0.0
14/04:30am SSW 8 9 - - - - - - - 16.6 1017.7 0.0
14/04:00am SSW 9 11 - - - - - - - 16.4 1017.7 0.0
14/03:30am SW 7 10 - - - - - - - 16.8 1017.8 0.0
14/03:00am S 5 8 - - - - - - - 17.8 1017.6 0.0
14/02:30am SSE 5 9 - - - - - - - 18.2 1017.7 0.0
14/02:00am ESE 13 15 - - - - - - - 18.9 1017.7 0.0
14/01:30am ESE 13 16 - - - - - - - 19.0 1017.9 0.0
14/01:00am ESE 14 18 - - - - - - - 19.0 1018.2 0.0
14/12:30am ESE 16 19 - - - - - - - 19.0 1018.4 0.0
14/12:00am SE 17 21 - - - - - - - 19.1 1018.4 0.0
 
Date/Time
EST
Wind Sea
Height
m
Swell Vis
km
Cloud Weather Temp
°C
Press
hPa
Rain since
9am
mm
Dir  Spd
kts
Gust
kts
Height
m
Period
s
Dir
13/11:30pm ESE 19 24 - - - - - - - 19.1 1018.3 0.0
13/11:00pm SE 20 24 - - - - - - - 19.1 1018.4 0.0
13/10:30pm SE 20 25 - - - - - - - 19.1 1018.3 0.0
13/10:00pm SE 23 27 - - - - - - - 19.1 1018.1 0.0
13/09:30pm SE 22 26 - - - - - - - 19.4 1018.2 0.0
13/09:00pm SE 22 26 - - - - - - - 19.4 1018.3 0.0
13/08:30pm SE 22 26 - - - - - - - 19.4 1018.3 0.0
13/08:00pm SE 23 25 - - - - - - - 19.0 1018.1 0.0
13/07:30pm SE 24 28 - - - - - - - 19.2 1017.5 0.0
13/07:00pm SE 24 29 - - - - - - - 19.1 1017.2 0.0
13/06:30pm SE 25 30 - - - - - - - 19.0 1016.9 0.0
13/06:00pm SE 24 29 - - - - - - - 19.1 1016.6 0.0
13/05:30pm SE 25 31 - - - - - - - 19.2 1016.2 0.0
13/05:00pm SE 25 30 - - - - - - - 19.2 1015.6 0.0
13/04:30pm SE 24 29 - - - - - - - 19.1 1015.4 0.0
13/04:00pm SE 22 26 - - - - - - - 19.3 1015.6 0.0
13/03:30pm SSE 22 26 - - - - - - - 19.4 1015.5 0.0
13/03:00pm SSE 21 25 - - - - - - - 19.6 1015.6 0.0
13/02:30pm SSE 21 26 - - - - - - - 20.3 1015.8 0.0
13/02:00pm SSE 18 22 - - - - - - - 20.4 1016.1 0.0
13/01:30pm SSE 17 21 - - - - - - - 20.3 1016.4 0.0
13/01:00pm SSE 17 22 - - - - - - - 20.7 1016.7 0.0
13/12:30pm SE 13 17 - - - - - - - 21.2 1016.9 0.0
13/12:00pm SSE 12 17 - - - - - - - 20.6 1017.0 0.0
13/11:30am SSE 12 15 - - - - - - - 20.6 1017.2 0.0
13/11:00am SSE 13 17 - - - - - - - 20.4 1017.4 0.0

Other formats

Comma delimited format used in spreadsheet applications
http://www.bom.gov.au/fwo/IDQ60701/IDQ60701.94594.axf

JavaScript Object Notation format (JSON) in row-major order
http://www.bom.gov.au/fwo/IDQ60701/IDQ60701.94594.json

Data quality

Most of these data are generated automatically and are frequently updated. Quality checks on data are not normally performed. It is possible for incorrect values to appear. Refer to information at About Latest Weather Observations and please check the disclaimer before using these data.